Aviation Digital Data Service (ADDS)

Output produced by METARs form (1347 UTC 26 May 2018)
found at http://www.aviationweather.gov/adds/metars/
 
VDSR 261330Z VRB02KT 7000 -RA SCT015 FEW017CB BKN040 25/25 Q1010 CB:S/SE
TAF VDSR 261100Z 2612/2706 18005KT 9999 SCT017 
     TEMPO 2612/2617 5000 TSRA SCT015 FEW017CB
       
VDSV 261330Z 04004KT 9999 SCT017 SCT040 27/25 Q1011
TAF VDSV 261100Z 2612/2706 19006KT 9999 SCT017 
     TEMPO 2612/2617 TS SCT015 FEW017CB SCT040